Sunrise Beach, Missouri
Current Conditions -  °F | °C
As of 2:55 PM on Friday 19 Dec 2014 (Local Time) from KAIZ Reporting Station
Overcast Overcast  
Wind Chill: 37°   Ceiling: 1000
Heat Index: 37°   Visibility: 10mi
Dew Point: 32°   Wind: 3mph
Humidity: 81%   Direction: 80°E
Pressure: 30.22"   Gusts: NA
Location:  38.18°N, 92.78°W
Report Text: KAIZ 192055Z AUTO 08003KT 10SM OVC010 03/00 A3022 RMK AO1 57017
Loading
Personal Weather Stations






























Interactive Weather Map New forecast layout! Learn more

10-Day Weather Forecast

Advertisements
Track Severe Weather on mobile